createdAt,value
2023-04-25T00:00:51.133Z,11.00
2023-04-25T00:03:20.890Z,11.00
2023-04-25T00:05:49.937Z,11.00
2023-04-25T00:08:18.314Z,11.00
2023-04-25T00:10:46.589Z,11.00
2023-04-25T00:13:15.713Z,11.00
2023-04-25T00:15:44.118Z,11.20
2023-04-25T00:18:12.333Z,11.00
2023-04-25T00:20:45.467Z,11.00
2023-04-25T00:23:13.795Z,11.00
2023-04-25T00:25:42.090Z,11.00
2023-04-25T00:28:10.317Z,11.00
2023-04-25T00:30:38.587Z,11.00
2023-04-25T00:33:06.879Z,11.00
2023-04-25T00:35:35.446Z,11.00
2023-04-25T00:38:05.184Z,11.00
2023-04-25T00:40:33.474Z,10.90
2023-04-25T00:43:01.763Z,10.90
2023-04-25T00:45:31.389Z,10.80
2023-04-25T00:47:59.825Z,10.80
2023-04-25T00:50:28.131Z,11.10
2023-04-25T00:52:56.708Z,10.70
2023-04-25T00:55:26.759Z,10.70
2023-04-25T00:57:55.152Z,10.70
2023-04-25T01:00:23.502Z,10.60
2023-04-25T01:02:52.590Z,10.70
2023-04-25T01:05:21.014Z,10.80
2023-04-25T01:07:49.348Z,11.00
2023-04-25T01:10:17.685Z,11.10
2023-04-25T01:12:47.330Z,11.00
2023-04-25T01:15:15.666Z,10.70
2023-04-25T01:17:45.204Z,10.70
2023-04-25T01:20:14.201Z,10.60
2023-04-25T01:22:44.016Z,10.70
2023-04-25T01:25:12.546Z,10.70
2023-04-25T01:27:41.249Z,10.60
2023-04-25T01:30:10.912Z,10.50
2023-04-25T01:32:40.323Z,10.50
2023-04-25T01:35:10.619Z,10.40
2023-04-25T01:37:39.069Z,10.40
2023-04-25T01:40:10.805Z,10.40
2023-04-25T01:42:40.954Z,10.30
2023-04-25T01:45:11.745Z,10.30
2023-04-25T01:47:41.060Z,10.30
2023-04-25T01:50:10.883Z,10.30
2023-04-25T01:52:39.963Z,10.30
2023-04-25T01:55:11.529Z,10.30
2023-04-25T01:57:44.580Z,10.30
2023-04-25T02:00:14.412Z,10.30
2023-04-25T02:02:42.739Z,10.30
2023-04-25T02:05:28.783Z,10.30
2023-04-25T02:07:56.954Z,10.40
2023-04-25T02:10:29.185Z,10.40
2023-04-25T02:13:09.648Z,10.40
2023-04-25T02:16:03.988Z,10.40
2023-04-25T02:18:34.121Z,10.40
2023-04-25T02:21:03.861Z,10.40
2023-04-25T02:23:32.439Z,10.60
2023-04-25T02:26:03.427Z,10.30
2023-04-25T02:28:32.397Z,10.60
2023-04-25T02:31:00.677Z,10.30
2023-04-25T02:33:28.982Z,10.20
2023-04-25T02:35:57.184Z,10.20
2023-04-25T02:38:25.381Z,10.40
2023-04-25T02:40:53.647Z,10.20
2023-04-25T02:43:23.345Z,10.20
2023-04-25T02:45:54.037Z,10.20
2023-04-25T02:48:22.360Z,10.10
2023-04-25T02:50:50.854Z,10.10
2023-04-25T02:53:19.114Z,10.20
2023-04-25T02:55:51.208Z,10.10
2023-04-25T02:58:19.530Z,10.20
2023-04-25T03:00:52.670Z,10.10
2023-04-25T03:03:22.714Z,10.10
2023-04-25T03:05:52.670Z,10.10
2023-04-25T03:08:31.983Z,10.10
2023-04-25T03:11:01.672Z,10.50
2023-04-25T03:13:30.968Z,10.10
2023-04-25T03:16:01.415Z,10.00
2023-04-25T03:18:29.719Z,10.00
2023-04-25T03:20:58.108Z,10.00
2023-04-25T03:23:27.017Z,10.00
2023-04-25T03:25:55.477Z,10.00
2023-04-25T03:28:24.558Z,10.00
2023-04-25T03:30:53.212Z,10.00
2023-04-25T03:33:22.781Z,10.00
2023-04-25T03:35:51.607Z,10.00
2023-04-25T03:38:20.738Z,9.90
2023-04-25T03:40:49.270Z,9.90
2023-04-25T03:43:28.829Z,9.90
2023-04-25T03:46:02.838Z,9.90
2023-04-25T03:48:32.529Z,9.80
2023-04-25T03:51:00.936Z,9.80
2023-04-25T03:53:30.124Z,9.80
2023-04-25T03:56:27.356Z,9.80
2023-04-25T03:59:03.153Z,9.80
2023-04-25T04:01:32.722Z,9.80
2023-04-25T04:04:02.875Z,9.80
2023-04-25T04:06:32.166Z,9.80
2023-04-25T04:09:12.034Z,9.80
2023-04-25T04:11:41.608Z,9.80
2023-04-25T04:14:11.305Z,9.80
2023-04-25T04:16:42.990Z,9.80
2023-04-25T04:19:12.638Z,9.80
2023-04-25T04:21:45.529Z,9.80
2023-04-25T04:24:13.944Z,10.10
2023-04-25T04:26:51.851Z,9.80
2023-04-25T04:29:54.278Z,9.80
2023-04-25T04:32:35.520Z,9.80
2023-04-25T04:35:08.189Z,9.80
2023-04-25T04:37:37.807Z,9.80
2023-04-25T04:40:08.373Z,9.80
2023-04-25T04:42:47.365Z,9.80
2023-04-25T04:45:35.915Z,9.80
2023-04-25T04:48:20.381Z,9.80
2023-04-25T04:51:08.944Z,9.80
2023-04-25T04:53:59.279Z,9.80
2023-04-25T04:56:45.751Z,9.80
2023-04-25T04:59:26.703Z,9.70
2023-04-25T05:02:01.197Z,9.70
2023-04-25T05:04:46.124Z,9.70
2023-04-25T05:07:34.686Z,9.70
2023-04-25T05:10:22.930Z,9.70
2023-04-25T05:13:20.342Z,9.70
2023-04-25T05:16:15.079Z,9.70
2023-04-25T05:18:52.044Z,9.70
2023-04-25T05:21:35.360Z,9.80
2023-04-25T05:24:05.347Z,9.80
2023-04-25T05:26:52.276Z,9.80
2023-04-25T05:29:46.837Z,9.80
2023-04-25T05:32:38.186Z,9.80
2023-04-25T05:35:08.037Z,9.80
2023-04-25T05:37:43.557Z,9.80
2023-04-25T05:40:15.457Z,9.80
2023-04-25T05:42:46.471Z,9.70
2023-04-25T05:45:33.354Z,9.70
2023-04-25T05:48:20.076Z,9.60
2023-04-25T05:51:27.054Z,9.70
2023-04-25T05:54:13.799Z,9.70
2023-04-25T05:56:43.988Z,9.70
2023-04-25T05:59:12.199Z,9.70
2023-04-25T06:01:41.356Z,9.80
2023-04-25T06:04:09.980Z,9.80
2023-04-25T06:06:38.363Z,9.80
2023-04-25T06:09:06.765Z,9.80
2023-04-25T06:11:34.979Z,9.90
2023-04-25T06:14:04.571Z,9.80
2023-04-25T06:16:35.878Z,9.80
2023-04-25T06:19:04.254Z,9.80
2023-04-25T06:21:33.329Z,9.80
2023-04-25T06:24:01.567Z,9.80
2023-04-25T06:26:30.793Z,9.70
2023-04-25T06:28:59.335Z,9.80
2023-04-25T06:31:29.945Z,9.80
2023-04-25T06:33:58.738Z,9.80
2023-04-25T06:36:28.740Z,9.80
2023-04-25T06:39:03.302Z,9.80
2023-04-25T06:41:31.603Z,9.80
2023-04-25T06:44:04.048Z,9.80
2023-04-25T06:46:38.893Z,9.70
2023-04-25T06:49:07.412Z,9.70
2023-04-25T06:51:36.125Z,9.70
2023-04-25T06:54:05.215Z,9.80
2023-04-25T06:56:42.327Z,10.00
2023-04-25T06:59:14.933Z,9.70
2023-04-25T07:01:46.501Z,9.70
2023-04-25T07:04:21.293Z,10.00
2023-04-25T07:07:02.006Z,9.70
2023-04-25T07:09:44.124Z,9.80
2023-04-25T07:12:12.612Z,9.90
2023-04-25T07:14:41.420Z,9.70
2023-04-25T07:17:12.964Z,9.80
2023-04-25T07:19:41.423Z,9.70
2023-04-25T07:22:10.908Z,9.80
2023-04-25T07:24:42.301Z,9.80
2023-04-25T07:27:14.128Z,9.80
2023-04-25T07:30:06.072Z,9.90
2023-04-25T07:32:35.890Z,9.90
2023-04-25T07:35:04.643Z,9.90
2023-04-25T07:37:33.081Z,10.00
2023-04-25T07:40:21.937Z,10.00
2023-04-25T07:42:54.418Z,10.10
2023-04-25T07:45:33.488Z,10.00
2023-04-25T07:48:04.201Z,9.90
2023-04-25T07:50:35.218Z,9.90
2023-04-25T07:53:03.706Z,9.90
2023-04-25T07:55:41.835Z,10.10
2023-04-25T07:58:16.357Z,9.90
2023-04-25T08:00:47.097Z,9.90
2023-04-25T08:03:43.053Z,9.90
2023-04-25T08:06:18.496Z,10.00
2023-04-25T08:08:56.704Z,9.90
2023-04-25T08:11:31.763Z,9.90
2023-04-25T08:14:00.073Z,9.90
2023-04-25T08:16:28.971Z,10.00
2023-04-25T08:19:01.117Z,10.00
2023-04-25T08:21:29.803Z,10.00
2023-04-25T08:24:04.966Z,10.00
2023-04-25T08:26:38.388Z,10.00
2023-04-25T08:29:07.517Z,10.00
2023-04-25T08:31:39.917Z,10.00
2023-04-25T08:34:12.121Z,10.00
2023-04-25T08:36:45.731Z,10.10
2023-04-25T08:39:43.112Z,10.10
2023-04-25T08:42:32.116Z,10.20
2023-04-25T08:45:06.930Z,10.20
2023-04-25T08:47:40.709Z,10.20
2023-04-25T08:50:11.045Z,10.30
2023-04-25T08:53:11.026Z,10.20
2023-04-25T08:55:41.408Z,10.20
2023-04-25T08:58:13.070Z,10.20
2023-04-25T09:00:42.727Z,10.20
2023-04-25T09:03:13.444Z,10.20
2023-04-25T09:05:47.070Z,10.20
2023-04-25T09:08:19.189Z,10.30
2023-04-25T09:10:47.756Z,10.30
2023-04-25T09:13:25.760Z,10.40
2023-04-25T09:16:18.540Z,10.40
2023-04-25T09:19:03.758Z,10.40
2023-04-25T09:21:36.538Z,10.40
2023-04-25T09:24:09.044Z,10.30
2023-04-25T09:26:37.722Z,10.30
2023-04-25T09:29:08.824Z,10.30
2023-04-25T09:31:40.869Z,10.30
2023-04-25T09:34:16.564Z,10.40
2023-04-25T09:36:49.441Z,10.40
2023-04-25T09:39:34.876Z,10.40
2023-04-25T09:42:13.997Z,10.50
2023-04-25T09:44:45.500Z,10.50
2023-04-25T09:47:16.211Z,10.50
2023-04-25T09:49:45.478Z,10.50
2023-04-25T09:52:17.712Z,10.50
2023-04-25T09:55:26.578Z,10.50
2023-04-25T09:57:56.946Z,10.50
2023-04-25T10:00:25.910Z,10.50
2023-04-25T10:02:55.455Z,10.50
2023-04-25T10:06:00.147Z,10.60
2023-04-25T10:08:33.971Z,10.60
2023-04-25T10:11:05.794Z,10.60
2023-04-25T10:13:35.702Z,10.60
2023-04-25T10:16:05.737Z,10.60
2023-04-25T10:18:35.021Z,10.60
2023-04-25T10:21:05.597Z,10.60
2023-04-25T10:23:35.442Z,10.60
2023-04-25T10:26:05.637Z,10.60
2023-04-25T10:28:59.477Z,10.60
2023-04-25T10:31:28.157Z,10.60
2023-04-25T10:33:56.532Z,10.70
2023-04-25T10:36:26.603Z,10.70
2023-04-25T10:38:55.483Z,10.70
2023-04-25T10:41:25.185Z,10.70
2023-04-25T10:44:03.097Z,10.70
2023-04-25T10:46:32.396Z,10.80
2023-04-25T10:49:02.527Z,10.80
2023-04-25T10:51:43.446Z,10.80
2023-04-25T10:54:21.698Z,10.80
2023-04-25T10:56:52.677Z,10.80
2023-04-25T10:59:22.565Z,10.80
2023-04-25T11:01:54.062Z,10.80
2023-04-25T11:04:23.539Z,10.90
2023-04-25T11:07:09.851Z,10.80
2023-04-25T11:09:41.159Z,10.80
2023-04-25T11:12:12.949Z,10.90
2023-04-25T11:14:41.872Z,10.90
2023-04-25T11:17:11.603Z,10.90
2023-04-25T11:19:40.018Z,10.90
2023-04-25T11:22:08.890Z,10.90
2023-04-25T11:24:38.515Z,10.90
2023-04-25T11:27:09.370Z,10.90
2023-04-25T11:29:39.190Z,10.90
2023-04-25T11:32:07.650Z,10.90
2023-04-25T11:34:36.695Z,10.80
2023-04-25T11:37:07.342Z,10.80
2023-04-25T11:39:35.839Z,10.80
2023-04-25T11:44:56.552Z,10.80
2023-04-25T11:47:31.003Z,10.80
2023-04-25T11:47:39.623Z,10.80
2023-04-25T11:50:00.935Z,10.80
2023-04-25T11:52:38.987Z,10.50
2023-04-25T11:55:11.137Z,10.70
2023-04-25T11:57:41.665Z,10.80
2023-04-25T12:00:18.088Z,11.00
2023-04-25T12:02:49.050Z,10.80
2023-04-25T12:07:50.107Z,10.80
2023-04-25T12:10:19.754Z,10.80
2023-04-25T12:12:49.060Z,10.70
2023-04-25T12:15:21.129Z,10.70
2023-04-25T12:17:50.734Z,10.70
2023-04-25T12:20:22.125Z,10.80
2023-04-25T12:22:50.841Z,10.70
2023-04-25T12:25:37.171Z,10.70
2023-04-25T12:28:13.237Z,10.70
2023-04-25T12:31:00.140Z,10.80
2023-04-25T12:33:29.557Z,10.80
2023-04-25T12:35:58.541Z,10.90
2023-04-25T12:38:28.053Z,10.90
2023-04-25T12:40:57.075Z,11.00
2023-04-25T12:43:25.769Z,11.00
2023-04-25T12:45:56.194Z,11.10
2023-04-25T12:48:26.249Z,11.40
2023-04-25T12:50:54.660Z,11.20
2023-04-25T12:53:25.204Z,11.20
2023-04-25T12:58:26.833Z,11.10
2023-04-25T13:00:55.304Z,11.00
2023-04-25T13:03:25.270Z,10.90
2023-04-25T13:05:53.797Z,10.90
2023-04-25T13:08:22.726Z,10.90
2023-04-25T13:10:51.022Z,10.90
2023-04-25T13:13:19.425Z,10.90
2023-04-25T13:15:47.742Z,10.90
2023-04-25T13:18:16.749Z,10.90
2023-04-25T13:20:47.226Z,10.90
2023-04-25T13:23:15.500Z,10.90
2023-04-25T13:25:43.861Z,10.90
2023-04-25T13:28:12.283Z,10.80
2023-04-25T13:30:40.616Z,10.80
2023-04-25T13:33:08.930Z,10.70
2023-04-25T13:35:38.405Z,10.80
2023-04-25T13:38:08.144Z,10.80
2023-04-25T13:40:36.579Z,10.80
2023-04-25T13:43:05.131Z,10.80
2023-04-25T13:45:33.662Z,11.20
2023-04-25T13:48:02.730Z,10.90
2023-04-25T13:50:31.280Z,10.90
2023-04-25T13:52:59.657Z,10.90
2023-04-25T13:55:29.717Z,10.90
2023-04-25T13:57:58.082Z,11.00
2023-04-25T14:00:26.946Z,11.00
2023-04-25T14:02:55.421Z,11.00
2023-04-25T14:05:24.062Z,11.10
2023-04-25T14:07:52.459Z,11.10
2023-04-25T14:10:20.833Z,11.20
2023-04-25T14:12:50.435Z,11.10
2023-04-25T14:15:18.638Z,11.10
2023-04-25T14:17:47.172Z,11.20
2023-04-25T14:20:15.453Z,11.20
2023-04-25T14:22:44.770Z,11.20
2023-04-25T14:25:13.045Z,11.20
2023-04-25T14:27:41.414Z,11.20
2023-04-25T14:30:12.848Z,11.30
2023-04-25T14:32:41.421Z,11.30
2023-04-25T14:35:11.127Z,11.30
2023-04-25T14:37:40.315Z,11.30
2023-04-25T14:40:11.667Z,11.30
2023-04-25T14:42:40.210Z,11.30
2023-04-25T14:45:11.026Z,11.30
2023-04-25T14:47:40.019Z,11.40
2023-04-25T14:50:09.623Z,11.40
2023-04-25T14:52:38.186Z,11.50
2023-04-25T14:55:07.023Z,11.50
2023-04-25T14:57:36.031Z,11.50
2023-04-25T15:00:09.879Z,11.60
2023-04-25T15:02:39.940Z,11.60
2023-04-25T15:05:09.581Z,11.70
2023-04-25T15:07:37.981Z,11.70
2023-04-25T15:10:07.240Z,11.70
2023-04-25T15:12:35.565Z,11.70
2023-04-25T15:15:04.401Z,11.70
2023-04-25T15:17:32.855Z,11.70
2023-04-25T15:20:02.560Z,11.70
2023-04-25T15:22:30.907Z,11.70
2023-04-25T15:24:59.216Z,11.70
2023-04-25T15:27:28.629Z,11.60
2023-04-25T15:29:57.066Z,11.70
2023-04-25T15:32:25.458Z,11.70
2023-04-25T15:34:53.870Z,11.80
2023-04-25T15:37:23.550Z,11.80
2023-04-25T15:40:04.872Z,11.80
2023-04-25T15:42:33.298Z,11.80
2023-04-25T15:45:01.525Z,11.80
2023-04-25T15:47:29.854Z,11.80
2023-04-25T15:49:58.474Z,11.80
2023-04-25T15:52:28.695Z,11.90
2023-04-25T15:54:57.166Z,11.90
2023-04-25T15:57:25.855Z,12.00
2023-04-25T15:59:54.449Z,12.00
2023-04-25T16:02:22.882Z,12.10
2023-04-25T16:04:51.548Z,12.20
2023-04-25T16:07:20.137Z,12.30
2023-04-25T16:09:49.880Z,12.30
2023-04-25T16:12:18.199Z,12.30
2023-04-25T16:14:46.589Z,12.20
2023-04-25T16:17:14.945Z,12.20
2023-04-25T16:19:43.319Z,12.10
2023-04-25T16:22:13.312Z,12.10
2023-04-25T16:24:41.588Z,12.10
2023-04-25T16:27:11.296Z,12.10
2023-04-25T16:29:39.776Z,12.10
2023-04-25T16:32:08.157Z,12.00
2023-04-25T16:34:36.662Z,12.10
2023-04-25T16:37:05.282Z,12.10
2023-04-25T16:39:33.833Z,12.10
2023-04-25T16:42:04.604Z,12.10
2023-04-25T16:44:38.529Z,12.10
2023-04-25T16:47:07.078Z,12.10
2023-04-25T16:49:35.591Z,12.10
2023-04-25T16:52:04.026Z,12.10
2023-04-25T16:54:32.356Z,12.10
2023-04-25T16:57:01.348Z,12.10
2023-04-25T16:59:29.699Z,12.10
2023-04-25T17:02:00.467Z,12.10
2023-04-25T17:04:29.043Z,12.20
2023-04-25T17:06:57.602Z,12.20
2023-04-25T17:09:27.180Z,12.20
2023-04-25T17:11:57.928Z,12.20
2023-04-25T17:14:26.285Z,12.20
2023-04-25T17:16:54.855Z,12.20
2023-04-25T17:19:24.685Z,12.50
2023-04-25T17:21:53.189Z,12.20
2023-04-25T17:24:22.242Z,12.20
2023-04-25T17:26:50.659Z,12.20
2023-04-25T17:29:19.142Z,12.20
2023-04-25T17:31:48.023Z,12.10
2023-04-25T17:34:18.058Z,12.00
2023-04-25T17:36:48.207Z,12.00
2023-04-25T17:39:17.619Z,11.90
2023-04-25T17:41:46.844Z,11.90
2023-04-25T17:44:15.349Z,11.80
2023-04-25T17:46:43.794Z,11.90
2023-04-25T17:49:12.124Z,11.80
2023-04-25T17:51:40.502Z,11.80
2023-04-25T17:54:10.548Z,11.80
2023-04-25T17:56:39.059Z,11.70
2023-04-25T17:59:07.871Z,11.70
2023-04-25T18:01:36.171Z,11.60
2023-04-25T18:04:05.637Z,11.60
2023-04-25T18:06:34.201Z,11.50
2023-04-25T18:09:03.540Z,11.50
2023-04-25T18:11:33.210Z,11.50
2023-04-25T18:14:01.509Z,11.40
2023-04-25T18:16:31.477Z,11.40
2023-04-25T18:19:05.337Z,11.40
2023-04-25T18:21:34.407Z,11.40
2023-04-25T18:24:02.774Z,11.50
2023-04-25T18:26:32.788Z,11.50
2023-04-25T18:29:01.490Z,11.50
2023-04-25T18:31:32.102Z,11.50
2023-04-25T18:34:00.793Z,11.50
2023-04-25T18:36:29.868Z,11.50
2023-04-25T18:39:03.339Z,11.20
2023-04-25T18:41:52.014Z,11.50
2023-04-25T18:44:24.817Z,11.50
2023-04-25T18:46:53.470Z,11.50
2023-04-25T18:49:21.943Z,11.50
2023-04-25T18:51:50.322Z,11.50
2023-04-25T18:54:18.731Z,11.50
2023-04-25T18:56:48.525Z,11.50
2023-04-25T18:59:18.044Z,11.50
2023-04-25T19:01:47.204Z,11.50
2023-04-25T19:04:15.797Z,11.50
2023-04-25T19:06:44.226Z,11.50
2023-04-25T19:09:13.380Z,11.50
2023-04-25T19:11:41.810Z,11.40
2023-04-25T19:14:12.249Z,11.40
2023-04-25T19:16:40.732Z,11.40
2023-04-25T19:19:10.451Z,11.40
2023-04-25T19:21:39.038Z,11.40
2023-04-25T19:24:08.495Z,11.40
2023-04-25T19:26:36.972Z,11.30
2023-04-25T19:29:07.249Z,11.30
2023-04-25T19:31:37.889Z,11.30
2023-04-25T19:34:07.673Z,11.20
2023-04-25T19:36:37.794Z,11.20
2023-04-25T19:39:07.412Z,11.20
2023-04-25T19:41:38.176Z,11.20
2023-04-25T19:44:08.491Z,11.20
2023-04-25T19:46:38.701Z,11.20
2023-04-25T19:49:07.994Z,11.20
2023-04-25T19:51:37.564Z,11.20
2023-04-25T19:54:06.411Z,11.20
2023-04-25T19:56:35.031Z,11.20
2023-04-25T19:59:03.359Z,11.20
2023-04-25T20:01:31.792Z,11.20
2023-04-25T20:04:01.910Z,11.10
2023-04-25T20:06:30.345Z,11.10
2023-04-25T20:08:59.269Z,11.00
2023-04-25T20:11:29.309Z,11.00
2023-04-25T20:13:57.846Z,11.00
2023-04-25T20:16:26.384Z,11.00
2023-04-25T20:18:55.414Z,10.90
2023-04-25T20:21:25.471Z,10.90
2023-04-25T20:23:53.769Z,11.00
2023-04-25T20:26:22.924Z,11.00
2023-04-25T20:28:51.887Z,11.00
2023-04-25T20:31:21.002Z,10.90
2023-04-25T20:33:50.249Z,10.90
2023-04-25T20:36:19.660Z,10.90
2023-04-25T20:38:49.690Z,10.90
2023-04-25T20:41:18.085Z,10.90
2023-04-25T20:43:47.289Z,10.90
2023-04-25T20:46:17.690Z,10.90
2023-04-25T20:48:46.152Z,11.00
2023-04-25T20:51:14.468Z,10.90
2023-04-25T20:53:43.033Z,10.90
2023-04-25T20:56:12.926Z,11.00
2023-04-25T20:58:41.461Z,11.00
2023-04-25T21:01:10.067Z,11.00
2023-04-25T21:03:38.506Z,10.90
2023-04-25T21:06:07.603Z,10.90
2023-04-25T21:08:36.305Z,10.90
2023-04-25T21:11:04.575Z,10.70
2023-04-25T21:13:34.636Z,10.90
2023-04-25T21:16:03.244Z,10.90
2023-04-25T21:18:32.026Z,10.90
2023-04-25T21:21:01.231Z,10.90
2023-04-25T21:23:29.607Z,10.90
2023-04-25T21:25:57.929Z,11.20
2023-04-25T21:28:26.415Z,10.80
2023-04-25T21:30:56.182Z,10.90
2023-04-25T21:33:24.531Z,10.80
2023-04-25T21:35:53.281Z,10.80
2023-04-25T21:38:21.564Z,10.80
2023-04-25T21:40:49.940Z,10.70
2023-04-25T21:43:18.625Z,10.70
2023-04-25T21:46:10.926Z,10.70
2023-04-25T21:48:36.672Z,10.70
2023-04-25T21:51:05.363Z,10.70
2023-04-25T21:53:34.080Z,10.70
2023-04-25T21:56:02.414Z,11.00
2023-04-25T21:58:30.740Z,10.70
2023-04-25T22:01:00.568Z,10.70
2023-04-25T22:03:29.143Z,10.60
2023-04-25T22:06:00.082Z,10.70
2023-04-25T22:08:28.322Z,10.60
2023-04-25T22:10:57.171Z,10.60
2023-04-25T22:13:25.920Z,10.60
2023-04-25T22:15:54.292Z,10.50
2023-04-25T22:18:22.722Z,10.50
2023-04-25T22:20:50.967Z,10.50
2023-04-25T22:23:20.603Z,10.80
2023-04-25T22:25:48.916Z,10.50
2023-04-25T22:28:17.313Z,10.40
2023-04-25T22:30:45.547Z,10.40
2023-04-25T22:33:14.005Z,10.30
2023-04-25T22:35:42.458Z,10.30
2023-04-25T22:38:10.836Z,10.30
2023-04-25T22:40:40.662Z,10.30
2023-04-25T22:43:08.965Z,10.30
2023-04-25T22:45:37.234Z,10.30
2023-04-25T22:48:06.138Z,10.20
2023-04-25T22:50:35.572Z,10.20
2023-04-25T22:53:05.235Z,10.20
2023-04-25T22:55:33.771Z,10.20
2023-04-25T22:58:03.900Z,10.30
2023-04-25T23:00:34.335Z,10.20
2023-04-25T23:03:04.201Z,10.20
2023-04-25T23:05:32.989Z,10.30
2023-04-25T23:08:01.353Z,10.20
2023-04-25T23:10:29.900Z,10.20
2023-04-25T23:13:00.455Z,10.20
2023-04-25T23:15:31.498Z,10.20
2023-04-25T23:17:59.820Z,10.20
2023-04-25T23:20:28.185Z,10.20
2023-04-25T23:22:56.719Z,10.20
2023-04-25T23:25:26.632Z,10.20
2023-04-25T23:27:55.156Z,10.20
2023-04-25T23:30:23.567Z,10.20
2023-04-25T23:32:53.681Z,10.20
2023-04-25T23:35:22.555Z,10.10
2023-04-25T23:37:50.853Z,10.10
2023-04-25T23:40:19.260Z,10.10
2023-04-25T23:42:47.700Z,10.10
2023-04-25T23:45:16.675Z,10.10
2023-04-25T23:47:45.140Z,10.10
2023-04-25T23:50:14.955Z,10.10
2023-04-25T23:52:43.492Z,10.00
2023-04-25T23:55:11.938Z,10.00
2023-04-25T23:57:40.247Z,10.00
